»·PEaware :: AAL6295 KLAS-KPHX

AAL6295 :: KLAS-KPHX

FLIGHT INFORMATION

Flight Status: Arrived
Operator:
American Airlines
More flights by this operator :: More flights under this callsign
Pilot: Antonio A. (14008)
Aircraft: CANADAIR CL-600 CRJ-700
(CRJ7)
More flights by this aircraft type
Origin: KLAS McCarran Intl
United States
Destination: KPHX Phoenix Sky Harbor Intl
United States
More flights between these airports :: More routes between these airports
Route: +COWBY7 COWBY TENTS BRUSR1
File this flight plan on PilotEdge
Remarks:
Altitude:
(Current/Filed)
250ft
Speed:
(Current/Filed)
330kts
Departed: 26-Sep-17 11:09 AM
Arrived: 26-Sep-17 12:04 PM
Distance/Time
Traveled:
222nm/0:55
Distance/Time
To Go:
Arrived

Flight Plot

Page will automatically refresh every two minutes.

Flight plan parsing failed; only flown route is shown


Map Options




Map Legend


Flown Route
Filed Route
Departure Airport
Arrival Airport
Navaid (VOR, NDB)
Fix

Horizontal Profiles

Position Reports

Time Latitude Longitude Heading Altitude Ground
Speed
26-Sep-17 10:49 36.079859 -115.145918 323 2188ft 0kts
26-Sep-17 10:50 36.079859 -115.145918 323 2188ft 0kts
26-Sep-17 10:51 36.079859 -115.145918 323 2188ft 0kts
26-Sep-17 10:52 36.079859 -115.145918 323 2188ft 0kts
26-Sep-17 10:53 36.079859 -115.145918 323 2188ft 0kts
26-Sep-17 10:54 36.079859 -115.145918 323 2188ft 0kts
26-Sep-17 10:55 36.079859 -115.145918 323 2188ft 0kts
26-Sep-17 10:56 36.079859 -115.145918 323 2188ft 0kts
26-Sep-17 10:57 36.079859 -115.145918 323 2188ft 0kts
26-Sep-17 10:58 36.079859 -115.145918 323 2188ft 0kts
26-Sep-17 10:59 36.079859 -115.145918 323 2188ft 0kts
26-Sep-17 11:00 36.079859 -115.145918 323 2188ft 0kts
26-Sep-17 11:01 36.079859 -115.145918 323 2188ft 0kts
26-Sep-17 11:02 36.079517 -115.145608 323 2188ft 0kts
26-Sep-17 11:03 36.079315 -115.145425 323 2188ft 2kts
26-Sep-17 11:04 36.079305 -115.145417 323 2188ft 0kts
26-Sep-17 11:05 36.079308 -115.145419 323 2188ft 0kts
26-Sep-17 11:06 36.079310 -115.145422 323 2188ft 0kts
26-Sep-17 11:07 36.079313 -115.145424 323 2188ft 0kts
26-Sep-17 11:08 36.079346 -115.145978 219 2188ft 16kts
26-Sep-17 11:09 36.077636 -115.146763 273 2188ft 17kts
26-Sep-17 11:10 36.077944 -115.154394 270 2188ft 27kts
26-Sep-17 11:11 36.077298 -115.161165 178 2188ft 0kts
26-Sep-17 11:12 36.077133 -115.161168 180 2188ft 0kts
26-Sep-17 11:13 36.076402 -115.156241 88 2188ft 79kts
26-Sep-17 11:14 36.076295 -115.102443 90 3143ft 220kts
26-Sep-17 11:15 36.076169 -115.021128 91 5077ft 230kts
26-Sep-17 11:16 36.072676 -114.939429 96 6722ft 259kts
26-Sep-17 11:17 36.060638 -114.845589 98 6987ft 271kts
26-Sep-17 11:18 36.049655 -114.767611 98 6990ft 270kts
26-Sep-17 11:19 36.034620 -114.662078 98 6987ft 269kts
26-Sep-17 11:20 36.021560 -114.570912 99 6990ft 270kts
26-Sep-17 11:21 36.008502 -114.480319 99 7075ft 265kts
26-Sep-17 11:22 35.995419 -114.390011 99 8771ft 271kts
26-Sep-17 11:23 35.981811 -114.296576 99 10443ft 285kts
26-Sep-17 11:24 35.966716 -114.193586 100 12127ft 316kts
26-Sep-17 11:25 35.950674 -114.084849 100 13849ft 325kts
26-Sep-17 11:26 35.934000 -113.972619 101 15859ft 337kts
26-Sep-17 11:27 35.909530 -113.859142 109 17861ft 349kts
26-Sep-17 11:28 35.876143 -113.740488 110 19881ft 384kts
26-Sep-17 11:29 35.838857 -113.612322 110 21895ft 408kts
26-Sep-17 11:30 35.799503 -113.478098 110 23901ft 425kts
26-Sep-17 11:31 35.757949 -113.337199 110 24979ft 459kts
26-Sep-17 11:32 35.713575 -113.187415 110 24992ft 468kts
26-Sep-17 11:33 35.668739 -113.036812 111 25000ft 470kts
26-Sep-17 11:34 35.623721 -112.886447 111 25015ft 469kts
26-Sep-17 11:35 35.578447 -112.736088 111 25024ft 467kts
26-Sep-17 11:36 35.533195 -112.586642 111 25028ft 467kts
26-Sep-17 11:37 35.477426 -112.444949 140 25138ft 458kts
26-Sep-17 11:38 35.357886 -112.404784 178 25151ft 450kts
26-Sep-17 11:39 35.233063 -112.399554 178 25131ft 449kts
26-Sep-17 11:40 35.109117 -112.377785 171 25121ft 452kts
26-Sep-17 11:41 34.985215 -112.349018 171 25103ft 452kts
26-Sep-17 11:42 34.864746 -112.321700 171 24514ft 412kts
26-Sep-17 11:43 34.757831 -112.298160 172 22893ft 374kts
26-Sep-17 11:44 34.657242 -112.276441 172 21285ft 362kts
26-Sep-17 11:45 34.559212 -112.255000 171 19516ft 355kts
26-Sep-17 11:46 34.465320 -112.234073 170 18993ft 338kts
26-Sep-17 11:47 34.375406 -112.211494 168 17428ft 321kts
26-Sep-17 11:48 34.290121 -112.189090 169 15533ft 311kts
26-Sep-17 11:49 34.206382 -112.167904 168 13313ft 298kts
26-Sep-17 11:50 34.129705 -112.148259 168 12967ft 280kts
26-Sep-17 11:51 34.051458 -112.120271 163 11631ft 297kts
26-Sep-17 11:52 33.974272 -112.089394 163 10957ft 287kts
26-Sep-17 11:53 33.897330 -112.059745 163 10721ft 299kts
26-Sep-17 11:54 33.817841 -112.027959 162 9063ft 291kts
26-Sep-17 11:55 33.743828 -111.997985 162 8092ft 279kts
26-Sep-17 11:56 33.674059 -111.969798 162 7531ft 263kts
26-Sep-17 11:57 33.608374 -111.943245 163 6794ft 230kts
26-Sep-17 11:58 33.547233 -111.918636 163 6780ft 234kts
26-Sep-17 11:59 33.514501 -111.866022 64 6801ft 236kts
26-Sep-17 12:00 33.523962 -111.788507 88 6199ft 244kts
26-Sep-17 12:01 33.508853 -111.718822 162 4831ft 212kts
26-Sep-17 12:02 33.458539 -111.738242 236 4337ft 221kts
26-Sep-17 12:03 33.431836 -111.798558 270 3747ft 187kts
26-Sep-17 12:04 33.443008 -111.854803 267 3477ft 166kts
26-Sep-17 12:05 33.440555 -111.905773 269 2472ft 142kts
26-Sep-17 12:06 33.440800 -111.952186 270 1969ft 143kts
26-Sep-17 12:07 33.440865 -111.999517 270 1142ft 129kts
26-Sep-17 12:08 33.440177 -112.007342 191 1142ft 1kts
26-Sep-17 12:09 33.438056 -112.008139 272 1142ft 0kts
26-Sep-17 12:10 33.438039 -112.007747 272 1142ft 0kts
26-Sep-17 12:11 33.438038 -112.007861 270 1142ft 0kts

Navigation Log

Ident Type
Flight plan parsing failed, navigation log unavailable